Time;durP1;ratioP1;P1;durP2;ratioP2;P2;SDS_P1;SDS_P2;PMS_P1;PMS_P2;Temp;Humidity;BMP_temperature;BMP_pressure;BME280_temperature;BME280_humidity;BME280_pressure;Samples;Min_cycle;Max_cycle;Signal;HPM_P1;HPM_P2
2021/08/25 00:00:01;;;;;;;6.17;3.03;;;;;;;;;;5099198;28;20494;-71
2021/08/25 00:02:29;;;;;;;3.97;2.33;;;;;;;;;;5098666;28;20726;-71
2021/08/25 00:04:59;;;;;;;5.23;2.00;;;;;;;;;;5103719;28;20454;-72
2021/08/25 00:07:27;;;;;;;4.60;2.43;;;;;;;;;;5099630;28;20473;-72
2021/08/25 00:09:55;;;;;;;3.80;2.27;;;;;;;;;;5099074;28;20538;-72
2021/08/25 00:12:23;;;;;;;4.47;2.07;;;;;;;;;;5098842;28;20456;-72
2021/08/25 00:14:51;;;;;;;3.63;2.27;;;;;;;;;;5098106;28;20470;-72
2021/08/25 00:17:19;;;;;;;4.40;2.10;;;;;;;;;;5098983;28;20479;-72
2021/08/25 00:19:47;;;;;;;4.50;2.60;;;;;;;;;;5098540;28;20785;-72
2021/08/25 00:22:16;;;;;;;6.00;2.40;;;;;;;;;;5098736;28;20483;-72
2021/08/25 00:24:44;;;;;;;3.77;2.10;;;;;;;;;;5098232;28;20462;-72
2021/08/25 00:27:15;;;;;;;6.73;2.33;;;;;;;;;;5098704;28;20467;-72
2021/08/25 00:29:43;;;;;;;3.87;2.07;;;;;;;;;;5097949;28;20467;-72
2021/08/25 00:32:11;;;;;;;3.83;2.20;;;;;;;;;;5098486;28;20463;-72
2021/08/25 00:34:38;;;;;;;9.50;2.30;;;;;;;;;;5098273;28;20521;-71
2021/08/25 00:37:06;;;;;;;3.57;2.20;;;;;;;;;;5098453;28;20533;-72
2021/08/25 00:39:36;;;;;;;4.20;2.07;;;;;;;;;;5098036;28;20558;-71
2021/08/25 00:42:03;;;;;;;5.50;2.80;;;;;;;;;;5097794;28;20520;-72
2021/08/25 00:44:31;;;;;;;3.10;1.80;;;;;;;;;;5097367;28;20493;-71
2021/08/25 00:46:59;;;;;;;6.33;2.70;;;;;;;;;;5098083;28;20563;-71
2021/08/25 00:49:26;;;;;;;5.10;2.17;;;;;;;;;;5097749;28;20470;-72
2021/08/25 00:51:54;;;;;;;6.00;2.63;;;;;;;;;;5097226;28;20898;-71
2021/08/25 00:54:22;;;;;;;5.47;2.17;;;;;;;;;;5096876;28;20460;-71
2021/08/25 00:56:52;;;;;;;3.50;2.03;;;;;;;;;;5097436;28;20502;-71
2021/08/25 00:59:21;;;;;;;4.77;2.40;;;;;;;;;;5097994;28;20528;-71
2021/08/25 01:01:54;;;;;;;3.10;1.87;;;;;;;;;;5097181;28;20906;-71
2021/08/25 01:04:24;;;;;;;4.83;2.00;;;;;;;;;;5097589;28;20481;-72
2021/08/25 01:06:52;;;;;;;9.80;2.20;;;;;;;;;;5096608;28;20521;-71
2021/08/25 01:09:20;;;;;;;4.07;2.30;;;;;;;;;;5097711;28;20464;-71
2021/08/25 01:11:48;;;;;;;5.80;2.50;;;;;;;;;;5097553;28;20894;-71
2021/08/25 01:14:18;;;;;;;5.10;2.63;;;;;;;;;;5096774;28;20464;-71
2021/08/25 01:16:47;;;;;;;4.87;2.57;;;;;;;;;;5097465;28;20494;-72
2021/08/25 01:19:15;;;;;;;3.40;2.07;;;;;;;;;;5097095;28;20455;-71
2021/08/25 01:21:44;;;;;;;5.27;3.13;;;;;;;;;;5097707;28;20452;-71
2021/08/25 01:24:13;;;;;;;6.13;2.27;;;;;;;;;;5097304;28;21071;-71
2021/08/25 01:26:48;;;;;;;4.00;1.87;;;;;;;;;;5097406;28;20463;-71
2021/08/25 01:29:22;;;;;;;4.67;2.03;;;;;;;;;;5097300;28;20522;-71
2021/08/25 01:31:50;;;;;;;6.27;2.60;;;;;;;;;;5097378;28;20495;-71
2021/08/25 01:34:18;;;;;;;5.40;2.90;;;;;;;;;;5096982;28;20750;-72
2021/08/25 01:36:46;;;;;;;5.03;3.37;;;;;;;;;;5096904;28;20544;-71
2021/08/25 01:39:13;;;;;;;5.13;2.70;;;;;;;;;;5096673;28;20460;-71
2021/08/25 01:41:44;;;;;;;7.83;2.87;;;;;;;;;;5096293;28;20748;-71
2021/08/25 01:44:12;;;;;;;7.40;3.00;;;;;;;;;;5097361;28;20474;-71
2021/08/25 01:46:42;;;;;;;9.73;3.20;;;;;;;;;;5097047;28;20463;-71
2021/08/25 01:49:10;;;;;;;4.97;3.10;;;;;;;;;;5096671;28;20463;-71
2021/08/25 01:51:38;;;;;;;4.73;1.83;;;;;;;;;;5096778;28;20546;-71
2021/08/25 01:54:07;;;;;;;5.50;2.83;;;;;;;;;;5097510;28;20463;-71
2021/08/25 01:56:35;;;;;;;4.97;3.10;;;;;;;;;;5096462;28;20584;-72
2021/08/25 01:59:03;;;;;;;8.73;2.93;;;;;;;;;;5097236;28;20459;-71
2021/08/25 02:01:31;;;;;;;5.10;2.30;;;;;;;;;;5097236;28;20869;-71
2021/08/25 02:04:02;;;;;;;8.03;3.00;;;;;;;;;;5096489;28;20470;-71
2021/08/25 02:06:30;;;;;;;4.40;2.67;;;;;;;;;;5097119;28;20466;-71
2021/08/25 02:08:58;;;;;;;4.70;2.60;;;;;;;;;;5097022;28;20502;-71
2021/08/25 02:11:25;;;;;;;4.00;2.17;;;;;;;;;;5096913;28;20767;-72
2021/08/25 02:13:53;;;;;;;4.33;2.57;;;;;;;;;;5096893;28;20456;-71
2021/08/25 02:16:21;;;;;;;4.60;1.83;;;;;;;;;;5096238;28;20485;-73
2021/08/25 02:18:49;;;;;;;6.37;2.87;;;;;;;;;;5098897;28;20565;-71
2021/08/25 02:21:21;;;;;;;4.27;2.50;;;;;;;;;;5101220;28;20518;-71
2021/08/25 02:23:48;;;;;;;5.00;2.13;;;;;;;;;;5100698;28;20471;-71
2021/08/25 02:26:17;;;;;;;8.07;3.00;;;;;;;;;;5100996;28;20469;-72
2021/08/25 02:28:46;;;;;;;3.10;1.93;;;;;;;;;;5100736;28;20564;-72
2021/08/25 02:31:13;;;;;;;3.10;1.57;;;;;;;;;;5100488;28;20494;-71
2021/08/25 02:33:42;;;;;;;3.60;1.90;;;;;;;;;;5100656;28;20566;-71
2021/08/25 02:36:11;;;;;;;5.20;2.40;;;;;;;;;;5100411;28;20870;-71
2021/08/25 02:38:43;;;;;;;3.50;1.63;;;;;;;;;;5100544;28;20463;-71
2021/08/25 02:41:12;;;;;;;4.03;2.10;;;;;;;;;;5100175;28;20550;-71
2021/08/25 02:43:40;;;;;;;3.10;1.87;;;;;;;;;;5099876;28;20538;-71
2021/08/25 02:46:07;;;;;;;4.37;2.80;;;;;;;;;;5100348;28;20534;-72
2021/08/25 02:48:35;;;;;;;4.77;2.20;;;;;;;;;;5099903;28;20487;-71
2021/08/25 02:51:03;;;;;;;7.33;3.07;;;;;;;;;;5100183;28;20464;-71
2021/08/25 02:53:31;;;;;;;3.97;2.00;;;;;;;;;;5100565;28;20779;-71
2021/08/25 02:56:00;;;;;;;4.63;1.90;;;;;;;;;;5100185;28;20854;-71
2021/08/25 02:58:28;;;;;;;3.03;1.80;;;;;;;;;;5099967;28;20487;-71
2021/08/25 03:00:59;;;;;;;3.17;2.20;;;;;;;;;;5099950;28;20728;-71
2021/08/25 03:03:27;;;;;;;5.07;1.90;;;;;;;;;;5100042;28;20451;-71
2021/08/25 03:05:55;;;;;;;3.60;2.20;;;;;;;;;;5100376;28;20475;-71
2021/08/25 03:08:26;;;;;;;14.13;8.50;;;;;;;;;;5100848;28;20887;-72
2021/08/25 03:10:54;;;;;;;3.80;1.93;;;;;;;;;;5116552;27;20557;-72
2021/08/25 03:13:23;;;;;;;5.50;2.40;;;;;;;;;;5120607;27;20867;-72
2021/08/25 03:15:51;;;;;;;2.67;1.70;;;;;;;;;;5120114;27;20799;-71
2021/08/25 03:18:19;;;;;;;3.37;2.27;;;;;;;;;;5119670;27;20474;-75
2021/08/25 03:20:46;;;;;;;3.13;2.03;;;;;;;;;;5120720;27;20470;-72
2021/08/25 03:23:14;;;;;;;5.30;1.97;;;;;;;;;;5121170;27;20455;-72
2021/08/25 03:25:42;;;;;;;4.20;2.33;;;;;;;;;;5119719;27;21052;-72
2021/08/25 03:28:10;;;;;;;2.70;1.57;;;;;;;;;;5119876;27;20455;-71
2021/08/25 03:30:39;;;;;;;7.90;2.70;;;;;;;;;;5118442;27;20481;-71
2021/08/25 03:33:07;;;;;;;3.07;1.97;;;;;;;;;;5118886;27;20463;-71
2021/08/25 03:35:35;;;;;;;3.63;1.90;;;;;;;;;;5119977;27;20459;-71
2021/08/25 03:38:03;;;;;;;4.13;2.57;;;;;;;;;;5119676;27;20502;-71
2021/08/25 03:40:30;;;;;;;3.70;2.17;;;;;;;;;;5119098;27;20547;-71
2021/08/25 03:42:58;;;;;;;3.80;1.93;;;;;;;;;;5119606;27;20494;-72
2021/08/25 03:45:26;;;;;;;6.57;2.10;;;;;;;;;;5119851;27;20469;-71
2021/08/25 03:47:55;;;;;;;5.43;2.23;;;;;;;;;;5120080;27;20461;-71
2021/08/25 03:50:23;;;;;;;3.87;2.30;;;;;;;;;;5119006;27;20469;-71
2021/08/25 03:52:51;;;;;;;4.90;2.13;;;;;;;;;;5119036;27;20820;-72
2021/08/25 03:55:19;;;;;;;3.10;2.10;;;;;;;;;;5115825;27;20448;-72
2021/08/25 03:57:46;;;;;;;7.63;2.27;;;;;;;;;;5098909;28;20950;-71
2021/08/25 04:00:17;;;;;;;5.83;2.13;;;;;;;;;;5098311;28;20491;-72
2021/08/25 04:02:45;;;;;;;3.80;2.70;;;;;;;;;;5098424;28;20463;-71
2021/08/25 04:05:15;;;;;;;5.10;2.37;;;;;;;;;;5098614;27;20451;-71
2021/08/25 04:07:42;;;;;;;5.50;2.53;;;;;;;;;;5099074;28;20470;-71
2021/08/25 04:10:11;;;;;;;5.47;2.67;;;;;;;;;;5098105;28;20455;-71
2021/08/25 04:12:44;;;;;;;5.17;2.10;;;;;;;;;;5097245;28;20540;-71
2021/08/25 04:15:12;;;;;;;5.20;2.90;;;;;;;;;;5097693;28;20447;-71
2021/08/25 04:17:40;;;;;;;4.27;2.37;;;;;;;;;;5097402;28;20572;-71
2021/08/25 04:20:08;;;;;;;10.30;2.87;;;;;;;;;;5116955;27;20466;-71
2021/08/25 04:22:37;;;;;;;4.43;2.37;;;;;;;;;;5118770;27;20487;-72
2021/08/25 04:25:08;;;;;;;6.23;2.73;;;;;;;;;;5118048;27;20523;-71
2021/08/25 04:27:36;;;;;;;4.10;2.40;;;;;;;;;;5118459;27;20477;-71
2021/08/25 04:30:04;;;;;;;3.63;1.70;;;;;;;;;;5118438;27;20450;-71
2021/08/25 04:32:33;;;;;;;4.10;1.90;;;;;;;;;;5118565;27;20878;-71
2021/08/25 04:35:00;;;;;;;4.87;2.93;;;;;;;;;;5118482;27;20904;-71
2021/08/25 04:37:28;;;;;;;4.93;1.97;;;;;;;;;;5119294;27;20482;-72
2021/08/25 04:39:57;;;;;;;9.20;2.50;;;;;;;;;;5119388;27;20446;-72
2021/08/25 04:42:25;;;;;;;4.70;2.50;;;;;;;;;;5117761;27;20478;-71
2021/08/25 04:44:53;;;;;;;3.37;2.23;;;;;;;;;;5117423;27;20718;-71
2021/08/25 04:47:21;;;;;;;6.03;2.80;;;;;;;;;;5117670;27;20462;-71
2021/08/25 04:49:49;;;;;;;3.10;1.80;;;;;;;;;;5117732;27;20531;-71
2021/08/25 04:52:17;;;;;;;6.40;2.23;;;;;;;;;;5117757;27;20455;-71
2021/08/25 04:54:45;;;;;;;5.97;2.90;;;;;;;;;;5117435;27;20947;-71
2021/08/25 04:57:15;;;;;;;4.37;2.67;;;;;;;;;;5116797;27;20626;-73
2021/08/25 04:59:43;;;;;;;5.03;2.53;;;;;;;;;;5118501;27;20513;-71
2021/08/25 05:02:11;;;;;;;4.03;2.67;;;;;;;;;;5118185;27;20475;-70
2021/08/25 05:04:41;;;;;;;4.80;2.60;;;;;;;;;;5118336;27;20439;-71
2021/08/25 05:07:11;;;;;;;5.40;2.97;;;;;;;;;;5113327;28;20490;-71
2021/08/25 05:09:40;;;;;;;5.87;2.77;;;;;;;;;;5118513;27;20451;-71
2021/08/25 05:12:08;;;;;;;4.37;2.27;;;;;;;;;;5118005;27;20470;-71
2021/08/25 05:14:41;;;;;;;4.17;2.10;;;;;;;;;;5116659;27;20454;-71
2021/08/25 05:17:09;;;;;;;8.30;2.83;;;;;;;;;;5116035;27;20463;-71
2021/08/25 05:19:36;;;;;;;4.97;2.43;;;;;;;;;;5116874;27;20451;-71
2021/08/25 05:22:06;;;;;;;9.27;2.60;;;;;;;;;;5115611;27;20478;-71
2021/08/25 05:24:36;;;;;;;3.90;2.83;;;;;;;;;;5118083;27;20451;-71
2021/08/25 05:27:03;;;;;;;6.83;2.80;;;;;;;;;;5116075;27;20490;-71
2021/08/25 05:29:32;;;;;;;3.03;2.03;;;;;;;;;;5109228;28;20451;-71
2021/08/25 05:32:01;;;;;;;3.17;1.90;;;;;;;;;;5097157;28;20989;-71
2021/08/25 05:34:34;;;;;;;3.30;2.03;;;;;;;;;;5096607;28;20483;-70
2021/08/25 05:37:05;;;;;;;4.67;2.50;;;;;;;;;;5107835;27;20462;-72
2021/08/25 05:39:36;;;;;;;6.77;3.47;;;;;;;;;;5116484;27;20493;-71
2021/08/25 05:42:04;;;;;;;3.70;2.20;;;;;;;;;;5117308;27;20458;-71
2021/08/25 05:44:32;;;;;;;3.27;2.00;;;;;;;;;;5118441;27;20888;-71
2021/08/25 05:47:01;;;;;;;4.63;2.70;;;;;;;;;;5096956;28;20576;-71
2021/08/25 05:49:29;;;;;;;5.10;2.60;;;;;;;;;;5096880;28;21000;-71
2021/08/25 05:52:00;;;;;;;6.90;2.67;;;;;;;;;;5095720;28;20443;-71
2021/08/25 05:54:28;;;;;;;6.20;2.57;;;;;;;;;;5095747;28;20544;-71
2021/08/25 05:56:55;;;;;;;12.73;2.70;;;;;;;;;;5096568;28;20506;-71
2021/08/25 05:59:23;;;;;;;3.47;2.30;;;;;;;;;;5095426;28;20556;-71
2021/08/25 06:01:52;;;;;;;4.60;2.70;;;;;;;;;;5095814;28;20489;-71
2021/08/25 06:04:22;;;;;;;4.27;2.70;;;;;;;;;;5096791;28;20456;-71
2021/08/25 06:06:50;;;;;;;4.37;2.67;;;;;;;;;;5096266;28;20852;-71
2021/08/25 06:09:18;;;;;;;5.40;3.07;;;;;;;;;;5096918;28;20840;-71
2021/08/25 06:11:46;;;;;;;5.40;2.57;;;;;;;;;;5096206;28;20483;-72
2021/08/25 06:14:14;;;;;;;7.40;2.83;;;;;;;;;;5095589;28;20455;-71
2021/08/25 06:16:43;;;;;;;5.13;3.30;;;;;;;;;;5096330;28;21018;-70
2021/08/25 06:19:14;;;;;;;6.13;2.97;;;;;;;;;;5116520;27;20487;-70
2021/08/25 06:21:47;;;;;;;5.67;3.27;;;;;;;;;;5115814;27;20459;-71
2021/08/25 06:24:20;;;;;;;5.13;3.10;;;;;;;;;;5114759;27;20454;-71
2021/08/25 06:26:48;;;;;;;5.67;3.57;;;;;;;;;;5117125;27;20470;-71
2021/08/25 06:29:19;;;;;;;6.43;3.10;;;;;;;;;;5116171;27;20492;-72
2021/08/25 06:31:47;;;;;;;8.20;4.90;;;;;;;;;;5113231;27;20557;-72
2021/08/25 06:34:15;;;;;;;6.73;4.17;;;;;;;;;;5103316;28;20458;-70
2021/08/25 06:36:43;;;;;;;9.30;5.53;;;;;;;;;;5103892;28;20459;-72
2021/08/25 06:39:13;;;;;;;7.80;4.40;;;;;;;;;;5106392;28;20482;-72
2021/08/25 06:41:41;;;;;;;8.20;4.70;;;;;;;;;;5094381;27;20459;-72
2021/08/25 06:44:16;;;;;;;6.83;4.10;;;;;;;;;;5096805;27;20554;-72
2021/08/25 06:46:43;;;;;;;12.63;5.60;;;;;;;;;;5113481;27;20443;-71
2021/08/25 06:49:11;;;;;;;10.00;5.23;;;;;;;;;;5106034;27;20456;-72
2021/08/25 06:51:39;;;;;;;9.60;6.20;;;;;;;;;;5116744;27;20483;-72
2021/08/25 06:54:07;;;;;;;12.87;6.30;;;;;;;;;;5112855;27;20498;-73
2021/08/25 06:56:37;;;;;;;9.73;6.57;;;;;;;;;;5108207;27;20466;-72
2021/08/25 06:59:06;;;;;;;8.70;4.30;;;;;;;;;;5103928;28;20574;-73
2021/08/25 07:01:34;;;;;;;9.40;5.07;;;;;;;;;;5106167;27;20467;-73
2021/08/25 07:04:09;;;;;;;6.70;3.63;;;;;;;;;;5098171;28;20462;-73
2021/08/25 07:06:37;;;;;;;6.00;3.43;;;;;;;;;;5114911;27;20842;-72
2021/08/25 07:09:08;;;;;;;6.17;3.20;;;;;;;;;;5112225;27;20463;-72
2021/08/25 07:11:37;;;;;;;7.57;3.80;;;;;;;;;;5101046;28;20520;-72
2021/08/25 07:14:09;;;;;;;5.13;3.10;;;;;;;;;;5101637;28;20463;-73
2021/08/25 07:16:40;;;;;;;4.57;2.90;;;;;;;;;;5117647;27;20464;-73
2021/08/25 07:19:08;;;;;;;5.83;3.30;;;;;;;;;;5111355;27;20498;-72
2021/08/25 07:21:37;;;;;;;6.60;3.03;;;;;;;;;;5104114;28;20464;-74
2021/08/25 07:24:05;;;;;;;6.63;3.50;;;;;;;;;;5107373;27;21187;-73
2021/08/25 07:26:33;;;;;;;5.37;3.33;;;;;;;;;;5104099;28;20459;-73
2021/08/25 07:29:02;;;;;;;8.00;3.43;;;;;;;;;;5099174;28;20512;-73
2021/08/25 07:31:31;;;;;;;3.87;2.70;;;;;;;;;;5103503;28;20497;-72
2021/08/25 07:34:05;;;;;;;4.80;4.13;;;;;;;;;;5109512;27;20456;-74
2021/08/25 07:36:33;;;;;;;7.70;3.77;;;;;;;;;;5098478;28;20470;-74
2021/08/25 07:39:01;;;;;;;4.83;2.70;;;;;;;;;;5100716;28;20807;-73
2021/08/25 07:41:29;;;;;;;7.70;3.50;;;;;;;;;;5110041;27;21092;-72
2021/08/25 07:44:00;;;;;;;8.93;4.50;;;;;;;;;;5109036;27;20448;-73
2021/08/25 07:46:35;;;;;;;5.70;3.23;;;;;;;;;;5097572;28;20484;-73
2021/08/25 07:49:05;;;;;;;3.03;2.30;;;;;;;;;;5103121;27;21060;-72
2021/08/25 07:51:35;;;;;;;7.07;2.87;;;;;;;;;;5101616;28;20455;-72
2021/08/25 07:54:12;;;;;;;5.73;2.33;;;;;;;;;;5118029;27;20457;-72
2021/08/25 07:56:46;;;;;;;7.73;2.60;;;;;;;;;;5085862;28;20813;-71
2021/08/25 07:59:14;;;;;;;4.27;2.40;;;;;;;;;;5097419;28;21000;-72
2021/08/25 08:01:45;;;;;;;4.03;2.57;;;;;;;;;;5097384;28;20463;-72
2021/08/25 08:04:13;;;;;;;4.67;2.57;;;;;;;;;;5097543;28;20695;-72
2021/08/25 08:06:41;;;;;;;5.30;2.60;;;;;;;;;;5109462;28;20458;-73
2021/08/25 08:09:11;;;;;;;3.30;2.20;;;;;;;;;;5097220;28;20487;-73
2021/08/25 08:11:40;;;;;;;8.80;3.47;;;;;;;;;;5110740;27;20778;-72
2021/08/25 08:14:13;;;;;;;5.40;3.70;;;;;;;;;;5101424;27;20521;-73
2021/08/25 08:16:50;;;;;;;3.93;2.40;;;;;;;;;;5096359;28;20891;-71
2021/08/25 08:19:30;;;;;;;5.70;3.00;;;;;;;;;;5116393;27;20478;-72
2021/08/25 08:21:59;;;;;;;4.33;3.77;;;;;;;;;;5107479;27;20463;-72
2021/08/25 08:24:32;;;;;;;2.93;2.10;;;;;;;;;;5110659;27;20456;-73
2021/08/25 08:27:00;;;;;;;9.23;3.10;;;;;;;;;;5097235;28;20780;-72
2021/08/25 08:29:44;;;;;;;12.03;2.73;;;;;;;;;;5112356;27;20533;-73
2021/08/25 08:32:18;;;;;;;4.03;3.00;;;;;;;;;;5101182;28;20635;-72
2021/08/25 08:34:51;;;;;;;3.50;2.70;;;;;;;;;;5097760;27;20817;-72
2021/08/25 08:37:19;;;;;;;3.90;2.03;;;;;;;;;;5110515;28;20515;-72
2021/08/25 08:39:58;;;;;;;3.87;2.10;;;;;;;;;;5111505;27;20501;-71
2021/08/25 08:42:26;;;;;;;6.70;3.13;;;;;;;;;;5117005;27;20561;-72
2021/08/25 08:44:55;;;;;;;5.60;2.40;;;;;;;;;;5118080;27;20447;-72
2021/08/25 08:47:26;;;;;;;4.33;2.30;;;;;;;;;;5108470;28;20462;-73
2021/08/25 08:49:56;;;;;;;3.90;2.47;;;;;;;;;;5105943;27;20451;-72
2021/08/25 08:52:25;;;;;;;5.17;2.30;;;;;;;;;;5115494;27;20547;-71
2021/08/25 08:54:55;;;;;;;3.43;1.90;;;;;;;;;;5115460;27;20447;-73
2021/08/25 08:57:23;;;;;;;3.63;2.17;;;;;;;;;;5105905;27;20475;-73
2021/08/25 08:59:52;;;;;;;3.97;1.97;;;;;;;;;;5096969;27;20523;-73
2021/08/25 09:05:24;;;;;;;3.33;2.13;;;;;;;;;;5091295;28;20440;-73
2021/08/25 09:07:56;;;;;;;2.67;1.70;;;;;;;;;;5114907;27;20976;-71
2021/08/25 09:10:25;;;;;;;3.50;2.40;;;;;;;;;;5100876;27;20472;-71
2021/08/25 09:12:58;;;;;;;4.60;1.33;;;;;;;;;;5111016;28;20894;-71
2021/08/25 09:15:39;;;;;;;3.07;1.87;;;;;;;;;;5100303;28;20755;-72
2021/08/25 09:21:18;;;;;;;3.73;1.73;;;;;;;;;;5096648;27;20879;-72
2021/08/25 09:23:52;;;;;;;4.03;2.27;;;;;;;;;;5104268;28;20721;-71
2021/08/25 09:26:20;;;;;;;3.03;1.70;;;;;;;;;;5099040;27;20459;-71
2021/08/25 09:28:51;;;;;;;3.23;1.97;;;;;;;;;;5100269;27;20463;-71
2021/08/25 09:31:22;;;;;;;5.27;2.33;;;;;;;;;;5097550;28;20458;-71
2021/08/25 09:33:54;;;;;;;5.00;1.73;;;;;;;;;;5102226;28;20774;-71
2021/08/25 09:36:33;;;;;;;3.87;1.97;;;;;;;;;;5097309;28;20443;-72
2021/08/25 09:39:03;;;;;;;5.87;2.67;;;;;;;;;;5110792;28;20569;-72
2021/08/25 09:41:31;;;;;;;3.50;2.00;;;;;;;;;;5104958;27;20452;-72
2021/08/25 09:44:23;;;;;;;3.60;1.40;;;;;;;;;;5107033;27;20459;-72
2021/08/25 09:46:56;;;;;;;3.80;1.80;;;;;;;;;;5108545;27;20506;-71
2021/08/25 09:49:34;;;;;;;4.60;2.80;;;;;;;;;;5099349;27;20475;-72
2021/08/25 09:52:02;;;;;;;4.97;2.40;;;;;;;;;;5101382;27;20866;-70
2021/08/25 09:54:34;;;;;;;4.30;2.20;;;;;;;;;;5103718;28;20507;-72
2021/08/25 09:57:03;;;;;;;2.40;1.57;;;;;;;;;;5106870;28;20473;-71
2021/08/25 09:59:31;;;;;;;4.60;2.93;;;;;;;;;;5094803;28;21179;-72
2021/08/25 10:01:59;;;;;;;2.23;1.40;;;;;;;;;;5101386;28;20472;-72
2021/08/25 10:04:31;;;;;;;3.57;2.20;;;;;;;;;;5108950;28;20471;-71
2021/08/25 10:07:01;;;;;;;3.80;2.10;;;;;;;;;;5101493;28;20456;-72
2021/08/25 10:09:29;;;;;;;3.77;2.50;;;;;;;;;;5101494;28;20497;-73
2021/08/25 10:12:05;;;;;;;3.23;1.60;;;;;;;;;;5105122;27;20586;-72
2021/08/25 10:14:33;;;;;;;3.80;2.37;;;;;;;;;;5105681;27;21074;-71
2021/08/25 10:17:01;;;;;;;5.67;1.83;;;;;;;;;;5098889;28;20452;-71
2021/08/25 10:19:35;;;;;;;2.23;0.90;;;;;;;;;;5099457;28;20547;-73
2021/08/25 10:22:39;;;;;;;1.67;1.00;;;;;;;;;;5105676;27;20456;-72
2021/08/25 10:25:11;;;;;;;8.20;2.13;;;;;;;;;;5099664;27;20745;-72
2021/08/25 10:28:01;;;;;;;4.00;1.40;;;;;;;;;;5104716;27;20544;-73
2021/08/25 10:30:55;;;;;;;4.30;1.63;;;;;;;;;;5103067;28;20462;-72
2021/08/25 10:33:23;;;;;;;4.40;2.70;;;;;;;;;;5096004;28;20488;-73
2021/08/25 10:35:51;;;;;;;3.70;2.30;;;;;;;;;;5103479;27;20463;-73
2021/08/25 10:38:21;;;;;;;3.60;1.73;;;;;;;;;;5113513;27;20747;-74
2021/08/25 10:40:49;;;;;;;3.60;1.90;;;;;;;;;;5114902;27;20491;-73
2021/08/25 10:43:54;;;;;;;5.00;1.83;;;;;;;;;;5107025;28;20531;-74
2021/08/25 10:46:24;;;;;;;5.10;3.10;;;;;;;;;;5036454;28;20450;-73
2021/08/25 10:49:27;;;;;;;2.10;1.50;;;;;;;;;;5042995;28;20457;-73
2021/08/25 10:52:07;;;;;;;5.13;2.07;;;;;;;;;;5037717;28;20468;-73
2021/08/25 10:54:43;;;;;;;3.50;1.93;;;;;;;;;;5048935;28;20538;-74
2021/08/25 10:57:22;;;;;;;2.40;1.60;;;;;;;;;;5052203;28;20467;-74
2021/08/25 11:03:02;;;;;;;3.50;2.03;;;;;;;;;;5105182;27;20574;-73
2021/08/25 11:05:43;;;;;;;5.90;1.50;;;;;;;;;;5097143;27;20455;-74
2021/08/25 11:08:23;;;;;;;2.97;1.57;;;;;;;;;;5104542;28;20442;-74
2021/08/25 11:10:59;;;;;;;2.53;1.10;;;;;;;;;;5102249;28;20467;-74
2021/08/25 11:13:40;;;;;;;4.60;1.30;;;;;;;;;;5096946;27;20731;-72
2021/08/25 11:16:29;;;;;;;3.30;1.20;;;;;;;;;;5104653;27;20454;-72
2021/08/25 11:21:46;;;;;;;1.80;1.07;;;;;;;;;;5109416;27;20462;-72
2021/08/25 11:24:19;;;;;;;2.50;1.40;;;;;;;;;;5097831;28;20479;-73
2021/08/25 11:26:48;;;;;;;3.00;1.67;;;;;;;;;;5104631;28;20454;-72
2021/08/25 11:29:22;;;;;;;2.03;1.30;;;;;;;;;;5119153;27;20527;-71
2021/08/25 11:31:54;;;;;;;2.40;1.27;;;;;;;;;;5098782;27;20446;-73
2021/08/25 11:34:33;;;;;;;1.80;1.20;;;;;;;;;;5107435;27;20447;-74
2021/08/25 11:37:05;;;;;;;2.57;1.80;;;;;;;;;;5118242;27;20719;-72
2021/08/25 11:39:38;;;;;;;5.13;1.83;;;;;;;;;;5107950;27;21101;-73
2021/08/25 11:42:22;;;;;;;2.33;1.00;;;;;;;;;;5099446;28;20463;-71
2021/08/25 11:44:50;;;;;;;2.37;1.40;;;;;;;;;;5098372;28;20466;-71
2021/08/25 11:47:20;;;;;;;2.37;1.27;;;;;;;;;;5107044;27;20459;-71
2021/08/25 11:49:57;;;;;;;2.33;1.23;;;;;;;;;;5099866;28;20444;-73
2021/08/25 11:52:44;;;;;;;4.03;1.23;;;;;;;;;;5103564;27;20476;-74
2021/08/25 11:55:20;;;;;;;3.07;1.30;;;;;;;;;;5103737;27;20447;-74
2021/08/25 11:57:54;;;;;;;3.60;1.00;;;;;;;;;;5115726;27;20988;-74
2021/08/25 12:00:30;;;;;;;3.60;1.07;;;;;;;;;;5098172;28;20490;-73
2021/08/25 12:02:59;;;;;;;4.47;1.50;;;;;;;;;;5097055;28;20483;-73
2021/08/25 12:05:36;;;;;;;3.37;1.50;;;;;;;;;;5095992;28;20447;-73
2021/08/25 12:08:13;;;;;;;2.13;1.13;;;;;;;;;;5097826;28;20502;-73
2021/08/25 12:10:41;;;;;;;1.83;1.10;;;;;;;;;;5097540;28;20530;-73
2021/08/25 12:13:34;;;;;;;1.77;0.80;;;;;;;;;;5098447;28;20794;-72
2021/08/25 12:16:21;;;;;;;4.93;1.07;;;;;;;;;;5098130;28;20448;-72
2021/08/25 12:19:10;;;;;;;4.27;2.13;;;;;;;;;;5097306;28;20475;-73
2021/08/25 12:21:59;;;;;;;2.77;1.40;;;;;;;;;;5098147;28;20487;-73
2021/08/25 12:24:43;;;;;;;2.20;1.20;;;;;;;;;;5084402;28;20456;-72
2021/08/25 12:27:12;;;;;;;2.80;1.33;;;;;;;;;;5097015;28;20469;-72
2021/08/25 12:29:43;;;;;;;4.10;1.10;;;;;;;;;;5097776;28;20680;-73
2021/08/25 12:32:14;;;;;;;2.50;1.00;;;;;;;;;;5097295;28;20460;-73
2021/08/25 12:35:02;;;;;;;1.90;1.10;;;;;;;;;;5096378;28;20443;-73
2021/08/25 12:37:51;;;;;;;1.67;0.90;;;;;;;;;;5096602;28;20499;-73
2021/08/25 12:40:22;;;;;;;2.43;1.40;;;;;;;;;;5096194;28;20486;-71
2021/08/25 12:42:55;;;;;;;9.63;1.77;;;;;;;;;;5096062;28;20907;-72
2021/08/25 12:45:23;;;;;;;2.07;1.33;;;;;;;;;;5101426;27;20462;-71
2021/08/25 12:47:54;;;;;;;1.90;1.10;;;;;;;;;;5096277;28;20516;-72
2021/08/25 12:50:25;;;;;;;2.47;1.30;;;;;;;;;;5096644;28;20899;-72
2021/08/25 12:52:54;;;;;;;2.33;1.10;;;;;;;;;;5096845;28;20466;-72
2021/08/25 12:55:23;;;;;;;3.13;1.30;;;;;;;;;;5096170;28;20548;-72
2021/08/25 12:57:51;;;;;;;2.90;1.00;;;;;;;;;;5104475;28;20875;-72
2021/08/25 13:00:19;;;;;;;5.23;2.67;;;;;;;;;;5096575;28;20497;-72
2021/08/25 13:02:47;;;;;;;3.70;1.30;;;;;;;;;;5106802;28;20481;-71
2021/08/25 13:05:18;;;;;;;3.37;1.50;;;;;;;;;;5096153;28;20868;-73
2021/08/25 13:07:46;;;;;;;3.50;1.63;;;;;;;;;;5095294;28;20455;-73
2021/08/25 13:10:14;;;;;;;2.20;1.73;;;;;;;;;;5096834;28;20579;-71
2021/08/25 13:12:54;;;;;;;7.63;1.30;;;;;;;;;;5107330;27;20459;-71
2021/08/25 13:15:22;;;;;;;1.90;1.10;;;;;;;;;;5104666;27;20460;-71
2021/08/25 13:17:51;;;;;;;4.90;1.83;;;;;;;;;;5100958;28;20531;-71
2021/08/25 13:20:19;;;;;;;2.90;1.60;;;;;;;;;;5105854;28;20969;-72
2021/08/25 13:22:49;;;;;;;5.37;1.93;;;;;;;;;;5097662;28;20551;-72
2021/08/25 13:25:17;;;;;;;3.50;1.20;;;;;;;;;;5116122;27;20874;-71
2021/08/25 13:27:46;;;;;;;2.10;1.07;;;;;;;;;;5114935;27;20455;-72
2021/08/25 13:30:21;;;;;;;3.40;1.10;;;;;;;;;;5107462;28;20467;-72
2021/08/25 13:32:49;;;;;;;1.70;1.00;;;;;;;;;;5118018;27;20480;-72
2021/08/25 13:35:20;;;;;;;2.37;1.00;;;;;;;;;;5126206;27;20820;-71
2021/08/25 13:37:48;;;;;;;3.80;1.30;;;;;;;;;;5109152;28;20884;-72
2021/08/25 13:40:19;;;;;;;6.03;1.60;;;;;;;;;;5105898;27;20971;-72
2021/08/25 13:42:51;;;;;;;1.77;0.90;;;;;;;;;;5102971;27;20459;-71
2021/08/25 13:45:20;;;;;;;3.30;2.10;;;;;;;;;;5108227;27;20472;-70
2021/08/25 13:47:51;;;;;;;1.93;1.00;;;;;;;;;;5095951;28;20451;-71
2021/08/25 13:50:29;;;;;;;4.43;1.50;;;;;;;;;;5098979;28;20467;-71
2021/08/25 13:53:00;;;;;;;2.43;1.50;;;;;;;;;;5106170;28;20446;-71
2021/08/25 13:55:31;;;;;;;2.33;1.43;;;;;;;;;;5111758;27;20523;-71
2021/08/25 13:57:59;;;;;;;2.73;1.57;;;;;;;;;;5107422;27;20435;-71
2021/08/25 14:00:29;;;;;;;3.27;1.40;;;;;;;;;;5104255;27;20492;-70
2021/08/25 14:03:00;;;;;;;7.90;2.77;;;;;;;;;;5106723;27;21054;-70
2021/08/25 14:05:27;;;;;;;3.13;2.50;;;;;;;;;;5104636;27;20870;-71
2021/08/25 14:07:55;;;;;;;3.60;0.90;;;;;;;;;;5094944;28;20466;-70
2021/08/25 14:10:32;;;;;;;5.90;1.43;;;;;;;;;;5101132;28;20491;-71
2021/08/25 14:13:02;;;;;;;4.60;1.63;;;;;;;;;;5106397;28;20545;-71
2021/08/25 14:15:33;;;;;;;2.00;0.97;;;;;;;;;;5099678;28;21040;-71
2021/08/25 14:18:09;;;;;;;2.23;1.17;;;;;;;;;;5124992;27;20473;-70
2021/08/25 14:20:50;;;;;;;2.03;0.87;;;;;;;;;;5110936;28;20489;-70
2021/08/25 14:23:18;;;;;;;5.13;1.83;;;;;;;;;;5099985;28;20444;-70
2021/08/25 14:25:46;;;;;;;4.03;1.73;;;;;;;;;;5100521;28;20467;-70
2021/08/25 14:28:18;;;;;;;2.13;0.97;;;;;;;;;;5103889;28;20550;-70
2021/08/25 14:30:54;;;;;;;3.03;1.90;;;;;;;;;;5102618;28;20490;-72
2021/08/25 14:33:26;;;;;;;2.53;1.00;;;;;;;;;;5102486;28;20515;-70
2021/08/25 14:36:02;;;;;;;2.87;1.07;;;;;;;;;;5107701;27;20546;-70
2021/08/25 14:38:32;;;;;;;3.03;1.60;;;;;;;;;;5099835;28;21069;-70
2021/08/25 14:41:00;;;;;;;3.10;1.80;;;;;;;;;;5105239;27;20929;-71
2021/08/25 14:43:28;;;;;;;2.23;1.20;;;;;;;;;;5116993;27;20867;-71
2021/08/25 14:45:58;;;;;;;2.27;1.33;;;;;;;;;;5110280;27;20920;-71
2021/08/25 14:48:27;;;;;;;1.97;0.87;;;;;;;;;;5118653;27;20434;-72
2021/08/25 14:51:09;;;;;;;2.30;1.63;;;;;;;;;;5118367;27;20838;-72
2021/08/25 14:53:38;;;;;;;3.03;1.50;;;;;;;;;;5120788;27;20462;-72
2021/08/25 14:56:06;;;;;;;3.67;1.93;;;;;;;;;;5120963;27;20458;-72
2021/08/25 14:58:48;;;;;;;2.60;1.33;;;;;;;;;;5110224;27;20885;-72
2021/08/25 15:01:24;;;;;;;1.97;1.10;;;;;;;;;;5097808;28;20476;-72
2021/08/25 15:03:52;;;;;;;3.87;2.73;;;;;;;;;;5096294;28;20554;-71
2021/08/25 15:06:20;;;;;;;4.43;1.00;;;;;;;;;;5095751;28;20482;-70
2021/08/25 15:08:50;;;;;;;4.17;1.10;;;;;;;;;;5099324;28;20867;-71
2021/08/25 15:11:19;;;;;;;1.83;1.20;;;;;;;;;;5107056;28;20446;-70
2021/08/25 15:13:47;;;;;;;2.63;1.20;;;;;;;;;;5118953;27;20462;-70
2021/08/25 15:16:29;;;;;;;4.03;1.37;;;;;;;;;;5105101;27;20881;-69